createdAt,value
2022-11-09T00:00:18.224Z,75
2022-11-09T00:02:17.986Z,75
2022-11-09T00:08:19.932Z,75
2022-11-09T00:10:19.582Z,77
2022-11-09T00:12:17.139Z,77
2022-11-09T00:14:19.270Z,77
2022-11-09T00:18:18.481Z,78
2022-11-09T00:20:16.710Z,77
2022-11-09T00:22:23.616Z,76
2022-11-09T00:24:19.874Z,75
2022-11-09T00:26:16.704Z,76
2022-11-09T00:30:16.685Z,75
2022-11-09T00:32:24.057Z,75
2022-11-09T00:34:19.597Z,75
2022-11-09T00:36:17.156Z,75
2022-11-09T00:38:16.736Z,75
2022-11-09T00:40:19.503Z,76
2022-11-09T00:42:20.058Z,77
2022-11-09T00:44:16.766Z,76
2022-11-09T00:46:20.573Z,76
2022-11-09T00:48:18.933Z,76
2022-11-09T00:50:16.654Z,77
2022-11-09T00:52:20.182Z,76
2022-11-09T00:54:18.886Z,75
2022-11-09T00:56:20.307Z,76
2022-11-09T00:58:20.418Z,77
2022-11-09T01:00:17.284Z,78
2022-11-09T01:02:17.948Z,78
2022-11-09T01:06:16.816Z,78
2022-11-09T01:08:16.200Z,78
2022-11-09T01:12:18.458Z,79
2022-11-09T01:14:18.434Z,78
2022-11-09T01:18:19.957Z,79
2022-11-09T01:20:18.950Z,79
2022-11-09T01:24:18.325Z,78
2022-11-09T01:26:19.447Z,78
2022-11-09T01:28:19.869Z,79
2022-11-09T01:30:16.832Z,79
2022-11-09T01:32:23.379Z,79
2022-11-09T01:34:19.141Z,79
2022-11-09T01:36:18.443Z,79
2022-11-09T01:38:18.488Z,78
2022-11-09T01:40:19.703Z,78
2022-11-09T01:42:23.095Z,79
2022-11-09T01:44:17.927Z,78
2022-11-09T01:46:18.830Z,78
2022-11-09T01:48:16.712Z,78
2022-11-09T01:50:16.638Z,78
2022-11-09T01:52:19.699Z,78
2022-11-09T01:54:16.688Z,78
2022-11-09T01:56:17.412Z,78
2022-11-09T02:00:17.050Z,78
2022-11-09T02:02:18.901Z,78
2022-11-09T02:06:15.611Z,78
2022-11-09T02:08:17.960Z,78
2022-11-09T02:12:16.768Z,79
2022-11-09T02:14:15.298Z,79
2022-11-09T02:16:19.843Z,79
2022-11-09T02:18:17.424Z,79
2022-11-09T02:20:19.014Z,79
2022-11-09T02:22:18.553Z,79
2022-11-09T02:24:19.672Z,79
2022-11-09T02:26:19.941Z,79
2022-11-09T02:30:19.977Z,79
2022-11-09T02:32:16.781Z,79
2022-11-09T02:34:19.639Z,79
2022-11-09T02:36:16.678Z,80
2022-11-09T02:38:20.391Z,80
2022-11-09T02:42:21.105Z,81
2022-11-09T02:44:17.563Z,80
2022-11-09T02:46:19.693Z,80
2022-11-09T02:48:19.729Z,79
2022-11-09T02:50:18.773Z,80
2022-11-09T02:52:18.466Z,80
2022-11-09T02:54:16.404Z,80
2022-11-09T02:56:18.896Z,80
2022-11-09T03:00:18.716Z,81
2022-11-09T03:02:15.270Z,80
2022-11-09T03:04:19.690Z,81
2022-11-09T03:06:16.663Z,82
2022-11-09T03:08:20.223Z,82
2022-11-09T03:10:18.464Z,81
2022-11-09T03:12:21.508Z,79
2022-11-09T03:14:16.622Z,78
2022-11-09T03:16:19.886Z,79
2022-11-09T03:18:19.068Z,79
2022-11-09T03:20:19.677Z,79
2022-11-09T03:22:19.635Z,80
2022-11-09T03:24:19.973Z,81
2022-11-09T03:26:19.385Z,81
2022-11-09T03:30:18.348Z,81
2022-11-09T03:32:19.306Z,80
2022-11-09T03:34:19.519Z,80
2022-11-09T03:36:20.201Z,80
2022-11-09T03:38:20.029Z,80
2022-11-09T03:42:18.574Z,79
2022-11-09T03:44:14.941Z,78
2022-11-09T03:48:18.595Z,79
2022-11-09T03:50:18.391Z,80
2022-11-09T03:54:20.007Z,79
2022-11-09T03:56:17.162Z,80
2022-11-09T03:58:19.939Z,80
2022-11-09T04:00:20.000Z,80
2022-11-09T04:02:17.513Z,79
2022-11-09T04:04:19.645Z,79
2022-11-09T04:06:19.381Z,79
2022-11-09T04:08:17.047Z,80
2022-11-09T04:10:19.478Z,80
2022-11-09T04:12:18.541Z,81
2022-11-09T04:14:18.986Z,81
2022-11-09T04:16:19.656Z,81
2022-11-09T04:18:18.065Z,82
2022-11-09T04:20:16.621Z,82
2022-11-09T04:22:19.839Z,82
2022-11-09T04:24:19.689Z,82
2022-11-09T04:26:18.885Z,82
2022-11-09T04:30:19.783Z,81
2022-11-09T04:32:22.862Z,80
2022-11-09T04:34:19.575Z,80
2022-11-09T04:36:19.930Z,79
2022-11-09T04:38:18.978Z,79
2022-11-09T04:42:22.852Z,77
2022-11-09T04:44:16.766Z,77
2022-11-09T04:46:19.856Z,77
2022-11-09T04:48:18.922Z,78
2022-11-09T04:50:16.724Z,79
2022-11-09T04:54:19.904Z,80
2022-11-09T04:56:16.817Z,81
2022-11-09T04:58:24.739Z,81
2022-11-09T05:00:16.626Z,81
2022-11-09T05:02:17.202Z,79
2022-11-09T05:04:20.265Z,78
2022-11-09T05:06:19.943Z,78
2022-11-09T05:08:18.410Z,79
2022-11-09T05:10:19.497Z,79
2022-11-09T05:12:16.817Z,79
2022-11-09T05:14:16.968Z,79
2022-11-09T05:16:19.386Z,79
2022-11-09T05:18:18.552Z,80
2022-11-09T05:20:18.510Z,80
2022-11-09T05:22:19.770Z,79
2022-11-09T05:24:20.014Z,80
2022-11-09T05:26:16.771Z,80
2022-11-09T05:28:19.683Z,80
2022-11-09T05:30:19.030Z,80
2022-11-09T05:32:18.005Z,80
2022-11-09T05:34:19.213Z,80
2022-11-09T05:36:17.318Z,80
2022-11-09T05:38:18.405Z,79
2022-11-09T05:42:19.025Z,79
2022-11-09T05:44:18.430Z,79
2022-11-09T05:46:19.815Z,80
2022-11-09T05:48:17.377Z,80
2022-11-09T05:50:17.612Z,80
2022-11-09T05:52:20.010Z,81
2022-11-09T05:54:19.000Z,81
2022-11-09T05:56:17.091Z,81
2022-11-09T05:58:19.021Z,80
2022-11-09T06:00:16.798Z,81
2022-11-09T06:02:18.250Z,81
2022-11-09T06:04:19.941Z,81
2022-11-09T06:06:16.756Z,81
2022-11-09T06:08:18.377Z,81
2022-11-09T06:10:19.679Z,81
2022-11-09T06:12:15.312Z,81
2022-11-09T06:14:19.020Z,81
2022-11-09T06:16:19.693Z,81
2022-11-09T06:18:15.013Z,80
2022-11-09T06:20:18.550Z,80
2022-11-09T06:22:19.820Z,80
2022-11-09T06:24:16.714Z,80
2022-11-09T06:26:20.048Z,81
2022-11-09T06:28:19.804Z,81
2022-11-09T06:30:16.849Z,81
2022-11-09T06:32:16.781Z,80
2022-11-09T06:34:19.710Z,79
2022-11-09T06:36:16.697Z,79
2022-11-09T06:38:17.524Z,79
2022-11-09T06:40:19.825Z,79
2022-11-09T06:42:17.401Z,79
2022-11-09T06:44:19.647Z,78
2022-11-09T06:46:19.955Z,79
2022-11-09T06:48:18.074Z,78
2022-11-09T06:50:23.427Z,78
2022-11-09T06:52:19.263Z,78
2022-11-09T06:54:16.850Z,78
2022-11-09T06:56:18.311Z,78
2022-11-09T07:00:19.028Z,78
2022-11-09T07:02:19.954Z,77
2022-11-09T07:06:19.928Z,77
2022-11-09T07:08:19.599Z,78
2022-11-09T07:16:59.762Z,76
2022-11-09T07:25:49.318Z,75
2022-11-09T07:30:24.568Z,76
2022-11-09T07:34:09.159Z,75
2022-11-09T07:36:10.716Z,74
2022-11-09T07:40:55.798Z,74
2022-11-09T07:45:04.061Z,74
2022-11-09T07:47:48.322Z,76
2022-11-09T07:52:47.874Z,75
2022-11-09T07:54:52.593Z,75
2022-11-09T07:57:54.802Z,75
2022-11-09T08:01:39.425Z,77
2022-11-09T08:07:49.734Z,78
2022-11-09T08:08:55.101Z,77
2022-11-09T08:12:50.148Z,76
2022-11-09T08:15:19.192Z,76
2022-11-09T08:18:40.653Z,75
2022-11-09T08:22:02.871Z,75
2022-11-09T08:24:04.001Z,75
2022-11-09T08:28:18.417Z,75
2022-11-09T08:32:00.026Z,74
2022-11-09T08:34:00.215Z,76
2022-11-09T08:38:48.636Z,70
2022-11-09T08:40:48.031Z,70
2022-11-09T08:44:29.815Z,71
2022-11-09T08:51:47.436Z,70
2022-11-09T08:51:55.068Z,69
2022-11-09T08:54:27.570Z,70
2022-11-09T08:59:44.612Z,71
2022-11-09T09:01:54.859Z,72
2022-11-09T09:07:40.115Z,71
2022-11-09T09:13:47.804Z,73
2022-11-09T09:16:23.091Z,75
2022-11-09T09:18:21.205Z,76
2022-11-09T09:22:52.203Z,76
2022-11-09T09:28:38.019Z,77
2022-11-09T09:30:40.310Z,78
2022-11-09T09:39:26.693Z,79
2022-11-09T09:42:49.375Z,79
2022-11-09T09:44:26.547Z,79
2022-11-09T09:46:59.986Z,79
2022-11-09T09:50:39.525Z,80
2022-11-09T09:52:36.529Z,79
2022-11-09T09:59:27.789Z,80
2022-11-09T10:01:26.643Z,79
2022-11-09T10:05:29.291Z,78
2022-11-09T10:12:31.791Z,78
2022-11-09T10:15:02.934Z,77
2022-11-09T10:19:31.714Z,77
2022-11-09T10:24:13.059Z,81
2022-11-09T10:26:57.919Z,80
2022-11-09T10:37:49.781Z,80
2022-11-09T10:40:35.685Z,81
2022-11-09T10:44:57.810Z,81
2022-11-09T10:54:33.268Z,81
2022-11-09T11:02:32.225Z,81
2022-11-09T11:11:31.929Z,82
2022-11-09T11:21:35.979Z,83
2022-11-09T11:25:05.005Z,83
2022-11-09T11:37:03.303Z,84
2022-11-09T11:39:29.573Z,84
2022-11-09T11:44:26.033Z,83
2022-11-09T11:46:59.897Z,83
2022-11-09T11:54:37.272Z,84
2022-11-09T11:56:26.034Z,83
2022-11-09T12:04:32.371Z,83
2022-11-09T12:07:47.729Z,84
2022-11-09T12:12:11.812Z,83
2022-11-09T12:21:10.485Z,83
2022-11-09T12:24:31.726Z,83
2022-11-09T12:26:38.407Z,83
2022-11-09T12:29:59.205Z,83
2022-11-09T12:34:43.142Z,83
2022-11-09T12:40:17.162Z,83
2022-11-09T12:42:56.614Z,83
2022-11-09T12:46:31.499Z,83
2022-11-09T12:50:40.180Z,83
2022-11-09T12:52:44.616Z,83
2022-11-09T12:58:53.251Z,83
2022-11-09T12:59:59.359Z,83
2022-11-09T13:04:43.133Z,83
2022-11-09T13:08:14.431Z,83
2022-11-09T13:10:33.013Z,83
2022-11-09T13:21:59.389Z,84
2022-11-09T13:31:52.123Z,84
2022-11-09T13:34:50.030Z,84
2022-11-09T13:39:12.803Z,84
2022-11-09T13:41:29.585Z,84
2022-11-09T13:43:38.458Z,84
2022-11-09T13:47:20.884Z,84
2022-11-09T13:51:09.095Z,83
2022-11-09T13:54:46.569Z,84
2022-11-09T14:00:15.351Z,84
2022-11-09T14:03:11.545Z,84
2022-11-09T14:07:14.965Z,83
2022-11-09T14:09:20.732Z,83
2022-11-09T14:15:16.822Z,83
2022-11-09T14:27:43.753Z,83
2022-11-09T14:37:14.352Z,84
2022-11-09T14:38:50.776Z,84
2022-11-09T14:43:59.958Z,83
2022-11-09T14:50:24.240Z,83
2022-11-09T14:59:31.574Z,83
2022-11-09T15:01:34.522Z,83
2022-11-09T15:03:32.596Z,83
2022-11-09T15:09:44.114Z,84
2022-11-09T15:19:50.641Z,84
2022-11-09T15:21:54.541Z,84
2022-11-09T15:23:46.649Z,85
2022-11-09T15:25:46.607Z,85
2022-11-09T15:29:43.393Z,85
2022-11-09T15:33:08.374Z,85
2022-11-09T15:46:08.025Z,84
2022-11-09T15:48:11.992Z,84
2022-11-09T15:55:15.697Z,85
2022-11-09T15:57:45.610Z,85
2022-11-09T15:59:53.033Z,85
2022-11-09T16:03:58.545Z,85
2022-11-09T16:06:01.624Z,85
2022-11-09T16:10:35.484Z,85
2022-11-09T16:14:39.543Z,85
2022-11-09T16:21:33.460Z,85
2022-11-09T16:32:52.148Z,85
2022-11-09T16:35:08.697Z,86
2022-11-09T16:36:57.828Z,86
2022-11-09T16:41:36.526Z,86
2022-11-09T16:43:28.171Z,86
2022-11-09T16:46:30.531Z,86
2022-11-09T16:54:53.915Z,87
2022-11-09T16:58:50.892Z,87
2022-11-09T17:06:04.989Z,88
2022-11-09T17:09:51.038Z,88
2022-11-09T17:11:51.302Z,88
2022-11-09T17:13:57.883Z,88
2022-11-09T17:16:30.452Z,88
2022-11-09T17:18:27.424Z,88
2022-11-09T17:22:31.821Z,89
2022-11-09T17:24:50.816Z,89
2022-11-09T17:26:50.429Z,89
2022-11-09T17:30:55.465Z,89
2022-11-09T17:32:51.683Z,89
2022-11-09T17:37:03.419Z,89
2022-11-09T17:39:26.340Z,89
2022-11-09T17:41:26.158Z,89
2022-11-09T17:43:28.776Z,89
2022-11-09T17:45:25.631Z,89
2022-11-09T17:47:25.613Z,89
2022-11-09T17:49:28.826Z,89
2022-11-09T17:53:25.593Z,89
2022-11-09T17:55:28.787Z,89
2022-11-09T17:57:25.723Z,89
2022-11-09T17:59:25.608Z,89
2022-11-09T18:01:25.592Z,89
2022-11-09T18:03:27.313Z,89
2022-11-09T18:05:27.188Z,89
2022-11-09T18:07:22.871Z,89
2022-11-09T18:09:41.110Z,89
2022-11-09T18:11:25.648Z,89
2022-11-09T18:13:32.215Z,89
2022-11-09T18:15:31.652Z,89
2022-11-09T18:17:25.662Z,89
2022-11-09T18:19:25.612Z,89
2022-11-09T18:23:28.802Z,89
2022-11-09T18:25:25.609Z,89
2022-11-09T18:27:30.229Z,89
2022-11-09T18:29:25.620Z,89
2022-11-09T18:31:25.923Z,89
2022-11-09T18:33:27.235Z,89
2022-11-09T18:37:25.687Z,89
2022-11-09T18:39:25.639Z,89
2022-11-09T18:41:25.652Z,89
2022-11-09T18:43:25.657Z,89
2022-11-09T18:45:22.820Z,89
2022-11-09T18:47:25.658Z,89
2022-11-09T18:49:25.612Z,89
2022-11-09T18:51:27.255Z,89
2022-11-09T18:53:25.624Z,89
2022-11-09T18:55:25.670Z,89
2022-11-09T18:57:25.712Z,89
2022-11-09T18:59:25.606Z,89
2022-11-09T19:01:28.836Z,89
2022-11-09T19:05:28.804Z,90
2022-11-09T19:07:26.045Z,89
2022-11-09T19:09:25.595Z,89
2022-11-09T19:13:25.626Z,90
2022-11-09T19:15:25.614Z,90
2022-11-09T19:17:23.002Z,90
2022-11-09T19:19:29.359Z,90
2022-11-09T19:21:29.084Z,90
2022-11-09T19:23:31.229Z,90
2022-11-09T19:25:28.731Z,90
2022-11-09T19:27:28.863Z,90
2022-11-09T19:29:25.567Z,90
2022-11-09T19:31:25.600Z,90
2022-11-09T19:33:25.617Z,90
2022-11-09T19:37:26.012Z,90
2022-11-09T19:39:29.653Z,90
2022-11-09T19:41:25.812Z,90
2022-11-09T19:43:28.816Z,90
2022-11-09T19:45:25.618Z,90
2022-11-09T19:47:22.920Z,90
2022-11-09T19:49:25.943Z,90
2022-11-09T19:51:25.655Z,90
2022-11-09T19:53:25.863Z,91
2022-11-09T19:55:25.619Z,90
2022-11-09T19:57:27.505Z,90
2022-11-09T19:59:25.624Z,91
2022-11-09T20:01:25.725Z,91
2022-11-09T20:03:25.985Z,91
2022-11-09T20:05:25.823Z,91
2022-11-09T20:09:25.654Z,91
2022-11-09T20:11:27.335Z,91
2022-11-09T20:13:25.645Z,91
2022-11-09T20:15:25.648Z,91
2022-11-09T20:17:25.709Z,91
2022-11-09T20:19:25.645Z,91
2022-11-09T20:21:27.346Z,91
2022-11-09T20:23:25.693Z,91
2022-11-09T20:25:25.632Z,91
2022-11-09T20:27:28.141Z,91
2022-11-09T20:29:25.658Z,91
2022-11-09T20:31:25.680Z,91
2022-11-09T20:33:25.676Z,91
2022-11-09T20:35:25.653Z,91
2022-11-09T20:37:26.360Z,91
2022-11-09T20:39:25.723Z,91
2022-11-09T20:41:25.864Z,91
2022-11-09T20:43:29.277Z,91
2022-11-09T20:45:25.648Z,91
2022-11-09T20:47:49.500Z,91
2022-11-09T20:51:25.689Z,91
2022-11-09T20:53:25.675Z,91
2022-11-09T20:55:25.705Z,91
2022-11-09T20:57:25.847Z,91
2022-11-09T20:59:25.680Z,91
2022-11-09T21:01:25.723Z,91
2022-11-09T21:03:25.669Z,91
2022-11-09T21:05:27.357Z,91
2022-11-09T21:07:28.663Z,91
2022-11-09T21:09:32.317Z,91
2022-11-09T21:11:25.648Z,91
2022-11-09T21:13:25.700Z,91
2022-11-09T21:19:25.615Z,91
2022-11-09T21:21:25.656Z,91
2022-11-09T21:23:25.637Z,91
2022-11-09T21:25:25.641Z,91
2022-11-09T21:27:26.043Z,91
2022-11-09T21:31:25.656Z,91
2022-11-09T21:33:25.735Z,91
2022-11-09T21:35:25.721Z,91
2022-11-09T21:37:28.948Z,91
2022-11-09T21:39:25.675Z,91
2022-11-09T21:41:29.154Z,91
2022-11-09T21:43:28.879Z,91
2022-11-09T21:45:25.625Z,91
2022-11-09T21:47:25.659Z,91
2022-11-09T21:49:25.675Z,91
2022-11-09T21:51:25.736Z,91
2022-11-09T21:53:25.754Z,91
2022-11-09T21:55:25.713Z,91
2022-11-09T21:57:25.896Z,91
2022-11-09T21:59:25.709Z,91
2022-11-09T22:01:30.362Z,91
2022-11-09T22:03:28.775Z,91
2022-11-09T22:05:25.991Z,91
2022-11-09T22:07:25.708Z,91
2022-11-09T22:09:32.540Z,91
2022-11-09T22:11:28.838Z,91
2022-11-09T22:13:26.077Z,91
2022-11-09T22:15:29.153Z,91
2022-11-09T22:17:25.704Z,91
2022-11-09T22:19:25.728Z,91
2022-11-09T22:21:25.643Z,91
2022-11-09T22:23:28.879Z,91
2022-11-09T22:25:28.888Z,91
2022-11-09T22:27:24.599Z,91
2022-11-09T22:29:25.672Z,91
2022-11-09T22:31:25.677Z,91
2022-11-09T22:33:27.399Z,91
2022-11-09T22:35:25.725Z,91
2022-11-09T22:37:25.785Z,91
2022-11-09T22:39:28.885Z,91
2022-11-09T22:41:28.718Z,91
2022-11-09T22:43:25.692Z,91
2022-11-09T22:45:25.622Z,91
2022-11-09T22:47:25.753Z,91
2022-11-09T22:51:25.694Z,91
2022-11-09T22:53:25.697Z,91
2022-11-09T22:55:25.621Z,91
2022-11-09T22:57:32.059Z,91
2022-11-09T22:59:27.318Z,91
2022-11-09T23:01:25.724Z,91
2022-11-09T23:03:25.646Z,91
2022-11-09T23:05:25.707Z,91
2022-11-09T23:07:25.667Z,91
2022-11-09T23:09:26.283Z,91
2022-11-09T23:11:25.685Z,91
2022-11-09T23:13:25.651Z,91
2022-11-09T23:15:25.722Z,91
2022-11-09T23:17:25.582Z,91
2022-11-09T23:21:29.124Z,91
2022-11-09T23:23:29.066Z,91
2022-11-09T23:25:25.741Z,91
2022-11-09T23:27:25.735Z,91
2022-11-09T23:29:25.713Z,91
2022-11-09T23:31:32.051Z,91
2022-11-09T23:35:25.672Z,91
2022-11-09T23:37:26.213Z,91
2022-11-09T23:39:25.673Z,91
2022-11-09T23:41:25.687Z,91
2022-11-09T23:43:25.737Z,91
2022-11-09T23:45:25.700Z,91
2022-11-09T23:47:25.768Z,91
2022-11-09T23:49:30.434Z,91
2022-11-09T23:51:25.661Z,91
2022-11-09T23:53:25.665Z,91
2022-11-09T23:55:25.682Z,91
2022-11-09T23:57:25.654Z,91
2022-11-09T23:59:25.676Z,91
